Time;durP1;ratioP1;P1;durP2;ratioP2;P2;SDS_P1;SDS_P2;PMS_P1;PMS_P2;Temp;Humidity;BMP_temperature;BMP_pressure;BME280_temperature;BME280_humidity;BME280_pressure;Samples;Min_cycle;Max_cycle;Signal;HPM_P1;HPM_P2
2022/04/23 00:02:11;;;;;;;0.45;0.40;;;13.50;93.20;;;;;;4986895;28;20027;-70
2022/04/23 00:04:38;;;;;;;0.85;0.38;;;13.50;93.00;;;;;;4986300;28;20027;-70
2022/04/23 00:07:07;;;;;;;2.08;1.58;;;13.40;93.20;;;;;;4986728;28;20106;-70
2022/04/23 00:09:33;;;;;;;0.22;0.22;;;13.40;93.20;;;;;;4972093;28;20031;-70
2022/04/23 00:11:59;;;;;;;0.88;0.85;;;13.50;93.30;;;;;;4972247;28;20019;-70
2022/04/23 00:14:27;;;;;;;1.77;1.45;;;13.50;93.20;;;;;;4971821;28;20122;-70
2022/04/23 00:16:53;;;;;;;0.52;0.52;;;13.40;93.40;;;;;;4986910;28;20427;-70
2022/04/23 00:19:20;;;;;;;0.55;0.55;;;13.30;93.50;;;;;;4971802;28;20554;-70
2022/04/23 00:21:46;;;;;;;2.60;1.83;;;13.20;93.80;;;;;;4986942;28;20035;-70
2022/04/23 00:24:12;;;;;;;0.13;0.13;;;13.10;94.20;;;;;;4986186;28;20027;-70
2022/04/23 00:26:40;;;;;;;0.88;0.88;;;13.10;94.20;;;;;;4986629;28;20495;-70
2022/04/23 00:29:06;;;;;;;0.57;0.57;;;13.10;94.10;;;;;;4986773;28;20102;-70
2022/04/23 00:31:32;;;;;;;1.98;1.52;;;13.30;94.10;;;;;;4971961;28;20431;-70
2022/04/23 00:33:57;;;;;;;0.45;0.45;;;13.30;94.40;;;;;;4971354;28;20053;-70
2022/04/23 00:36:23;;;;;;;1.08;0.80;;;13.10;94.50;;;;;;4971907;28;20186;-70
2022/04/23 00:38:52;;;;;;;4.40;1.45;;;13.00;94.70;;;;;;4986556;28;20057;-70
2022/04/23 00:44:05;;;;;;;0.40;0.30;;;12.70;95.40;;;;;;4983883;28;20026;-70
2022/04/23 00:46:31;;;;;;;0.90;0.90;;;12.50;95.90;;;;;;4970113;28;20026;-70
2022/04/23 00:48:58;;;;;;;0.73;0.68;;;12.50;96.30;;;;;;4971521;28;20437;-70
2022/04/23 00:51:28;;;;;;;1.70;1.55;;;12.50;96.50;;;;;;4986554;28;20636;-71
2022/04/23 00:53:55;;;;;;;0.80;0.73;;;12.40;96.90;;;;;;4971490;28;20471;-70
2022/04/23 00:56:23;;;;;;;0.52;0.52;;;12.30;97.20;;;;;;4986459;28;20039;-70
2022/04/23 00:58:49;;;;;;;33.10;1.55;;;12.30;97.50;;;;;;4986777;28;20046;-70
2022/04/23 01:01:15;;;;;;;1.00;0.98;;;12.30;97.80;;;;;;4986438;28;20113;-70
2022/04/23 01:03:42;;;;;;;1.15;1.08;;;12.20;98.10;;;;;;4986145;28;20462;-70
2022/04/23 01:06:11;;;;;;;0.40;0.40;;;12.10;98.40;;;;;;4960681;28;20113;-70
2022/04/23 01:08:38;;;;;;;0.70;0.70;;;12.00;99.00;;;;;;4965330;28;20019;-70
2022/04/23 01:11:04;;;;;;;1.10;1.00;;;11.90;99.30;;;;;;4966326;28;20034;-70
2022/04/23 01:13:30;;;;;;;0.65;0.65;;;12.00;99.50;;;;;;4987582;23;20050;-68
2022/04/23 01:16:07;;;;;;;4.25;1.60;;;12.10;99.50;;;;;;5011057;28;20552;-68
2022/04/23 01:18:36;;;;;;;0.30;0.30;;;12.00;99.80;;;;;;4993185;28;20478;-68
2022/04/23 01:21:04;;;;;;;0.77;0.77;;;12.00;99.90;;;;;;5010117;28;20026;-68
2022/04/23 01:23:30;;;;;;;0.60;0.60;;;12.10;99.90;;;;;;5009926;28;20022;-68
2022/04/23 01:25:57;;;;;;;1.55;1.10;;;12.00;99.90;;;;;;5009196;28;20034;-68
2022/04/23 01:28:27;;;;;;;1.15;1.08;;;12.00;99.90;;;;;;5009876;28;20485;-69
2022/04/23 01:30:54;;;;;;;0.20;0.20;;;12.00;99.90;;;;;;5010536;28;20108;-69
2022/04/23 01:33:21;;;;;;;1.02;1.02;;;12.10;99.90;;;;;;5008847;28;20030;-68
2022/04/23 01:35:47;;;;;;;0.35;0.35;;;11.80;99.90;;;;;;5009085;28;20076;-68
2022/04/23 01:38:13;;;;;;;0.30;0.30;;;11.80;99.90;;;;;;5012394;28;20513;-68
2022/04/23 01:40:40;;;;;;;0.47;0.47;;;11.80;99.90;;;;;;5009702;28;20367;-69
2022/04/23 01:43:08;;;;;;;2.83;1.45;;;11.60;99.90;;;;;;4994380;28;20034;-69
2022/04/23 01:45:34;;;;;;;1.33;1.02;;;11.40;99.90;;;;;;4993964;28;20133;-69
2022/04/23 01:48:00;;;;;;;1.02;0.73;;;11.40;99.90;;;;;;4993982;28;20544;-68
2022/04/23 01:50:26;;;;;;;1.23;1.15;;;11.20;99.90;;;;;;4976477;28;20026;-68
2022/04/23 01:52:52;;;;;;;0.38;0.38;;;11.30;99.90;;;;;;4976337;28;20034;-69
2022/04/23 01:55:18;;;;;;;2.15;1.73;;;11.50;99.90;;;;;;4993538;28;20030;-69
2022/04/23 01:57:44;;;;;;;1.63;1.42;;;11.50;99.90;;;;;;4993944;28;20038;-70
2022/04/23 02:00:13;;;;;;;0.85;0.85;;;11.50;99.90;;;;;;4993891;28;20034;-69
2022/04/23 02:02:41;;;;;;;3.03;2.22;;;11.50;99.90;;;;;;4994151;28;20076;-70
2022/04/23 02:05:08;;;;;;;2.20;1.67;;;11.40;99.90;;;;;;4993641;28;20121;-69
2022/04/23 02:07:44;;;;;;;0.28;0.28;;;11.40;99.90;;;;;;4993709;28;20030;-69
2022/04/23 02:10:14;;;;;;;0.98;0.88;;;11.40;99.90;;;;;;4993753;28;20030;-69
2022/04/23 02:12:42;;;;;;;0.70;0.55;;;11.50;99.90;;;;;;4992387;28;20045;-70
2022/04/23 02:15:14;;;;;;;0.22;0.22;;;11.40;99.90;;;;;;4999173;28;20033;-69
2022/04/23 02:17:43;;;;;;;0.52;0.52;;;11.50;99.90;;;;;;5011748;28;20116;-69
2022/04/23 02:20:13;;;;;;;0.00;0.00;;;11.50;99.90;;;;;;5013326;28;20121;-69
2022/04/23 02:22:40;;;;;;;0.10;0.10;;;11.50;99.90;;;;;;5012181;28;20069;-69
2022/04/23 02:25:07;;;;;;;0.50;0.50;;;11.50;99.90;;;;;;5011654;28;20030;-69
2022/04/23 02:27:49;;;;;;;1.15;0.82;;;11.50;99.90;;;;;;4995629;28;20037;-69
2022/04/23 02:30:20;;;;;;;0.80;0.80;;;11.40;99.90;;;;;;5012785;28;20473;-69
2022/04/23 02:32:47;;;;;;;0.80;0.68;;;11.30;99.90;;;;;;5011342;28;20033;-69
2022/04/23 02:35:20;;;;;;;2.70;2.47;;;11.30;99.90;;;;;;5011635;28;20429;-69
2022/04/23 02:37:47;;;;;;;0.22;0.22;;;11.50;99.90;;;;;;5012644;28;20030;-69
2022/04/23 02:40:14;;;;;;;0.68;0.68;;;11.50;99.90;;;;;;5012494;28;20026;-69
2022/04/23 02:42:40;;;;;;;1.17;1.15;;;11.50;99.90;;;;;;4995339;28;20105;-69
2022/04/23 02:45:08;;;;;;;6.82;2.75;;;11.60;99.90;;;;;;5011363;28;20048;-69
2022/04/23 02:47:52;;;;;;;1.42;1.33;;;11.70;99.90;;;;;;5012434;28;20478;-69
2022/04/23 02:50:37;;;;;;;0.28;0.28;;;11.80;99.90;;;;;;4995058;28;20037;-68
2022/04/23 02:53:07;;;;;;;0.00;0.00;;;11.70;99.90;;;;;;5010989;28;20022;-70
2022/04/23 02:55:36;;;;;;;0.73;0.73;;;11.60;99.90;;;;;;5011079;28;20026;-68
2022/04/23 02:58:08;;;;;;;0.60;0.60;;;11.60;99.90;;;;;;5011399;28;20046;-69
2022/04/23 03:00:37;;;;;;;0.28;0.28;;;11.50;99.90;;;;;;5011326;28;20161;-69
2022/04/23 03:03:03;;;;;;;2.30;1.45;;;11.30;99.90;;;;;;5010844;28;20065;-68
2022/04/23 03:05:30;;;;;;;2.42;0.77;;;11.20;99.90;;;;;;4994760;28;20718;-69
2022/04/23 03:07:56;;;;;;;0.30;0.30;;;11.30;99.90;;;;;;5012291;28;20616;-69
2022/04/23 03:10:22;;;;;;;0.43;0.43;;;11.30;99.90;;;;;;5012410;28;20113;-69
2022/04/23 03:12:47;;;;;;;0.75;0.75;;;11.20;99.90;;;;;;4994420;28;20509;-68
2022/04/23 03:15:19;;;;;;;1.15;1.13;;;11.20;99.90;;;;;;4983158;28;20498;-69
2022/04/23 03:17:46;;;;;;;0.28;0.28;;;11.30;99.90;;;;;;4972155;28;20034;-69
2022/04/23 03:20:13;;;;;;;0.45;0.45;;;11.20;99.90;;;;;;4973034;28;20351;-69
2022/04/23 03:22:40;;;;;;;0.43;0.43;;;11.30;99.90;;;;;;4972039;28;20027;-71
2022/04/23 03:25:12;;;;;;;1.48;0.60;;;11.20;99.90;;;;;;4972546;28;20121;-69
2022/04/23 03:27:38;;;;;;;0.28;0.28;;;11.10;99.90;;;;;;4972642;28;20031;-69
2022/04/23 03:30:06;;;;;;;2.90;0.75;;;11.10;99.90;;;;;;4971850;28;20114;-69
2022/04/23 03:32:34;;;;;;;0.40;0.40;;;11.10;99.90;;;;;;4971672;28;20026;-69
2022/04/23 03:35:00;;;;;;;1.05;1.02;;;11.00;99.90;;;;;;4972613;28;20529;-69
2022/04/23 03:37:26;;;;;;;0.55;0.55;;;11.00;99.90;;;;;;4972571;28;20027;-69
2022/04/23 03:39:51;;;;;;;0.55;0.55;;;11.00;99.90;;;;;;4972528;28;20033;-69
2022/04/23 03:42:17;;;;;;;1.45;1.00;;;11.00;99.90;;;;;;4972495;28;20027;-69
2022/04/23 03:44:43;;;;;;;1.13;0.75;;;11.10;99.90;;;;;;4972327;28;20402;-69
2022/04/23 03:47:09;;;;;;;0.30;0.30;;;11.00;99.90;;;;;;4972630;28;20085;-69
2022/04/23 03:49:34;;;;;;;3.38;1.98;;;11.00;99.90;;;;;;4972302;28;20045;-69
2022/04/23 03:52:00;;;;;;;1.27;1.17;;;11.00;99.90;;;;;;4971425;28;20627;-68
2022/04/23 03:54:26;;;;;;;0.90;0.90;;;10.90;99.90;;;;;;4972100;28;20030;-69
2022/04/23 03:56:52;;;;;;;1.42;1.33;;;10.80;99.90;;;;;;4972612;28;20463;-68
2022/04/23 03:59:21;;;;;;;1.27;1.17;;;10.70;99.90;;;;;;4972116;28;20035;-70
2022/04/23 04:01:48;;;;;;;0.08;0.08;;;10.60;99.90;;;;;;4972490;28;20026;-69
2022/04/23 04:04:14;;;;;;;0.73;0.73;;;10.60;99.90;;;;;;4971563;28;20019;-70
2022/04/23 04:06:41;;;;;;;0.60;0.60;;;10.70;99.90;;;;;;4972181;28;20474;-69
2022/04/23 04:09:08;;;;;;;4.35;1.08;;;10.70;99.90;;;;;;4970802;28;20054;-69
2022/04/23 04:14:19;;;;;;;1.05;1.05;;;10.50;99.90;;;;;;4971797;28;20035;-70
2022/04/23 04:16:46;;;;;;;1.35;0.93;;;10.70;99.90;;;;;;5010343;28;20032;-69
2022/04/23 04:19:15;;;;;;;1.30;0.65;;;10.70;99.90;;;;;;5011077;28;20030;-70
2022/04/23 04:21:44;;;;;;;0.30;0.30;;;10.50;99.90;;;;;;5009904;28;20112;-69
2022/04/23 04:24:13;;;;;;;0.50;0.50;;;10.30;99.90;;;;;;5009400;28;20612;-69
2022/04/23 04:26:47;;;;;;;2.20;1.60;;;10.30;99.90;;;;;;5010680;28;20032;-69
2022/04/23 04:29:14;;;;;;;1.02;0.95;;;10.10;99.90;;;;;;5009788;28;20030;-69
2022/04/23 04:31:49;;;;;;;0.40;0.40;;;10.20;99.90;;;;;;5009568;28;20459;-70
2022/04/23 04:34:30;;;;;;;0.10;0.10;;;10.20;99.90;;;;;;5009382;28;20033;-70
2022/04/23 04:37:12;;;;;;;0.77;0.77;;;10.10;99.90;;;;;;5010912;28;20026;-70
2022/04/23 04:39:41;;;;;;;0.20;0.20;;;10.20;99.90;;;;;;4993122;28;20392;-69
2022/04/23 04:42:08;;;;;;;0.52;0.52;;;10.30;99.90;;;;;;5010570;28;20108;-70
2022/04/23 04:44:34;;;;;;;0.20;0.20;;;10.30;99.90;;;;;;5010573;28;20022;-70
2022/04/23 04:47:00;;;;;;;0.50;0.50;;;10.30;99.90;;;;;;4992562;28;20552;-69
2022/04/23 04:49:26;;;;;;;0.28;0.25;;;10.50;99.90;;;;;;5010571;28;20038;-70
2022/04/23 04:51:53;;;;;;;1.05;1.00;;;10.60;99.90;;;;;;5010832;28;20030;-69
2022/04/23 04:54:21;;;;;;;0.30;0.30;;;10.60;99.90;;;;;;5009954;28;20065;-70
2022/04/23 04:56:48;;;;;;;13.45;1.75;;;10.70;99.90;;;;;;5009330;28;20025;-69
2022/04/23 04:59:14;;;;;;;0.90;0.73;;;10.90;99.90;;;;;;5009324;28;20470;-70
2022/04/23 05:01:41;;;;;;;0.30;0.30;;;10.70;99.90;;;;;;4992923;28;20038;-69
2022/04/23 05:04:06;;;;;;;0.85;0.85;;;10.70;99.90;;;;;;5009084;28;20025;-70
2022/04/23 05:06:32;;;;;;;2.55;1.65;;;10.60;99.90;;;;;;5009321;28;20026;-69
2022/04/23 05:08:58;;;;;;;0.40;0.40;;;10.60;99.90;;;;;;5010454;28;20045;-68
2022/04/23 05:11:24;;;;;;;1.10;0.60;;;10.60;99.90;;;;;;5011014;28;20026;-69
2022/04/23 05:13:51;;;;;;;1.33;0.68;;;10.70;99.90;;;;;;5012651;28;20038;-69
2022/04/23 05:16:17;;;;;;;0.30;0.30;;;10.70;99.90;;;;;;4998307;28;20033;-69
2022/04/23 05:18:43;;;;;;;0.20;0.20;;;10.70;99.90;;;;;;4994757;28;20033;-70
2022/04/23 05:21:09;;;;;;;0.82;0.82;;;10.80;99.90;;;;;;4994442;28;20038;-69
2022/04/23 05:23:35;;;;;;;3.33;1.30;;;10.90;99.90;;;;;;4976888;28;20442;-69
2022/04/23 05:26:03;;;;;;;0.73;0.55;;;11.00;99.90;;;;;;4993401;28;20070;-69
2022/04/23 05:28:30;;;;;;;0.30;0.30;;;10.90;99.90;;;;;;4993071;28;20329;-69
2022/04/23 05:30:55;;;;;;;1.58;1.10;;;11.00;99.90;;;;;;4994451;28;20019;-68
2022/04/23 05:33:21;;;;;;;0.25;0.25;;;11.00;99.90;;;;;;4992798;28;20034;-69
2022/04/23 05:35:47;;;;;;;0.40;0.40;;;11.00;99.90;;;;;;4993105;28;20027;-69
2022/04/23 05:38:13;;;;;;;0.15;0.15;;;11.00;99.90;;;;;;4994475;28;20038;-68
2022/04/23 05:40:39;;;;;;;5.22;0.68;;;11.10;99.90;;;;;;4976843;28;20061;-69
2022/04/23 05:43:05;;;;;;;0.40;0.40;;;11.20;99.90;;;;;;4992483;28;20457;-70
2022/04/23 05:45:31;;;;;;;0.20;0.20;;;11.20;99.90;;;;;;4994153;28;20033;-70
2022/04/23 05:47:57;;;;;;;0.40;0.40;;;11.20;99.90;;;;;;4994117;28;20030;-70
2022/04/23 05:50:23;;;;;;;0.08;0.08;;;11.20;99.90;;;;;;4999945;28;20087;-68
2022/04/23 05:52:49;;;;;;;0.25;0.25;;;11.20;99.90;;;;;;4984413;28;20039;-67
2022/04/23 05:55:16;;;;;;;0.52;0.52;;;11.30;99.90;;;;;;5002163;28;20036;-68
2022/04/23 05:57:42;;;;;;;1.13;0.98;;;11.30;99.90;;;;;;4996933;28;20401;-67
2022/04/23 06:00:11;;;;;;;0.60;0.60;;;11.40;99.90;;;;;;4987695;28;20447;-67
2022/04/23 06:02:37;;;;;;;0.20;0.20;;;11.40;99.90;;;;;;5003003;28;20100;-68
2022/04/23 06:05:04;;;;;;;0.52;0.52;;;11.50;99.90;;;;;;4999827;28;20022;-67
2022/04/23 06:07:31;;;;;;;0.00;0.00;;;11.50;99.90;;;;;;4993730;28;20378;-68
2022/04/23 06:09:57;;;;;;;2.42;1.85;;;11.50;99.90;;;;;;4976222;28;20030;-66
2022/04/23 06:12:22;;;;;;;0.22;0.22;;;11.70;99.90;;;;;;4992379;28;20030;-66
2022/04/23 06:14:51;;;;;;;0.00;0.00;;;11.70;99.90;;;;;;4991789;28;20080;-66
2022/04/23 06:17:27;;;;;;;0.30;0.30;;;11.70;99.90;;;;;;4993313;28;20450;-66
2022/04/23 06:19:55;;;;;;;0.98;0.98;;;11.90;99.90;;;;;;4992147;28;20042;-67
2022/04/23 06:22:22;;;;;;;1.27;0.45;;;11.90;99.90;;;;;;4992111;28;20069;-66
2022/04/23 06:24:48;;;;;;;1.05;0.95;;;12.10;99.90;;;;;;4992777;28;20173;-67
2022/04/23 06:27:14;;;;;;;0.50;0.50;;;12.10;99.90;;;;;;4993557;28;20386;-67
2022/04/23 06:29:40;;;;;;;0.63;0.63;;;12.00;99.90;;;;;;4991842;28;20034;-67
2022/04/23 06:32:10;;;;;;;0.55;0.55;;;12.00;99.90;;;;;;4993461;28;20053;-67
2022/04/23 06:34:39;;;;;;;0.20;0.20;;;12.00;99.90;;;;;;4993107;28;20027;-66
2022/04/23 06:37:06;;;;;;;0.20;0.20;;;12.10;99.90;;;;;;4974322;28;20030;-66
2022/04/23 06:39:32;;;;;;;0.45;0.45;;;12.20;99.90;;;;;;4974054;28;20023;-65
2022/04/23 06:41:58;;;;;;;1.23;1.13;;;12.40;99.90;;;;;;4974169;28;20040;-65
2022/04/23 06:44:24;;;;;;;2.42;1.17;;;12.40;99.90;;;;;;4991243;28;20566;-66
2022/04/23 06:46:50;;;;;;;0.73;0.65;;;12.30;99.90;;;;;;4991560;28;20061;-65
2022/04/23 06:49:16;;;;;;;0.65;0.65;;;12.40;99.90;;;;;;4973989;28;20077;-66
2022/04/23 06:51:42;;;;;;;12.35;1.45;;;12.40;99.90;;;;;;4992392;28;20085;-66
2022/04/23 06:54:08;;;;;;;1.13;1.02;;;12.50;99.90;;;;;;4992812;28;20031;-65
2022/04/23 06:56:34;;;;;;;0.20;0.20;;;12.60;99.90;;;;;;4992602;28;20482;-65
2022/04/23 06:59:00;;;;;;;0.22;0.22;;;12.60;99.90;;;;;;4992588;28;20038;-64
2022/04/23 07:01:27;;;;;;;0.75;0.52;;;12.70;99.90;;;;;;4975377;28;20483;-65
2022/04/23 07:03:53;;;;;;;0.30;0.30;;;12.80;99.90;;;;;;4975145;28;20360;-66
2022/04/23 07:06:19;;;;;;;0.15;0.15;;;12.80;99.90;;;;;;4992572;28;20061;-66
2022/04/23 07:08:45;;;;;;;0.32;0.32;;;12.80;99.90;;;;;;4974647;28;20038;-66
2022/04/23 07:11:11;;;;;;;0.17;0.17;;;12.90;99.90;;;;;;4992722;28;20062;-66
2022/04/23 07:13:38;;;;;;;1.95;1.20;;;13.10;99.90;;;;;;5007829;23;20050;-68
2022/04/23 07:16:05;;;;;;;0.10;0.10;;;13.10;99.90;;;;;;4983750;28;20530;-68
2022/04/23 07:18:32;;;;;;;0.00;0.00;;;13.20;99.90;;;;;;4975127;28;20026;-68
2022/04/23 07:20:58;;;;;;;1.08;0.40;;;13.20;99.90;;;;;;4974990;28;20469;-68
2022/04/23 07:26:10;;;;;;;0.13;0.13;;;13.10;99.90;;;;;;4977722;28;20441;-68
2022/04/23 07:28:37;;;;;;;0.32;0.32;;;13.40;99.90;;;;;;4984947;28;20026;-68
2022/04/23 07:31:05;;;;;;;0.10;0.10;;;13.50;99.90;;;;;;4971619;28;20023;-67
2022/04/23 07:38:59;;;;;;;0.17;0.17;;;13.30;99.90;;;;;;4971464;28;20039;-67
2022/04/23 07:41:27;;;;;;;0.32;0.32;;;13.40;99.90;;;;;;4971339;28;20037;-67
2022/04/23 07:43:54;;;;;;;0.00;0.00;;;13.50;99.90;;;;;;4971780;28;20067;-63
2022/04/23 07:46:19;;;;;;;0.30;0.30;;;13.80;99.90;;;;;;4955432;28;20088;-64
2022/04/23 07:48:46;;;;;;;1.38;1.27;;;13.80;99.90;;;;;;4972660;28;20034;-63
2022/04/23 07:51:12;;;;;;;0.00;0.00;;;13.60;99.90;;;;;;4954860;28;20019;-64
2022/04/23 07:53:38;;;;;;;0.00;0.00;;;13.70;99.90;;;;;;4972161;28;20034;-67
2022/04/23 07:56:07;;;;;;;0.03;0.03;;;14.00;99.90;;;;;;4971545;28;20470;-67
2022/04/23 07:58:32;;;;;;;0.55;0.55;;;13.90;99.90;;;;;;4970522;28;20043;-68
2022/04/23 08:00:58;;;;;;;0.35;0.30;;;14.20;99.90;;;;;;4972006;28;20422;-69
2022/04/23 08:03:24;;;;;;;0.00;0.00;;;14.00;99.90;;;;;;4971688;28;20079;-68
2022/04/23 08:05:50;;;;;;;0.03;0.03;;;14.10;99.90;;;;;;4972189;28;20049;-68
2022/04/23 08:08:17;;;;;;;0.10;0.10;;;14.40;99.90;;;;;;4972015;28;20034;-68
2022/04/23 08:10:44;;;;;;;0.20;0.20;;;14.60;99.90;;;;;;4971747;28;20053;-68
2022/04/23 08:13:11;;;;;;;0.10;0.10;;;14.90;99.90;;;;;;4971424;28;20122;-68
2022/04/23 08:15:36;;;;;;;0.13;0.13;;;14.90;99.90;;;;;;4971607;28;20150;-68
2022/04/23 08:18:02;;;;;;;0.75;0.47;;;15.00;99.90;;;;;;4954361;28;20125;-68
2022/04/23 08:20:31;;;;;;;0.80;0.65;;;15.00;99.90;;;;;;4972256;28;20035;-67
2022/04/23 08:22:57;;;;;;;0.55;0.43;;;15.10;99.90;;;;;;4970177;28;20118;-67
2022/04/23 08:25:23;;;;;;;0.00;0.00;;;15.10;99.90;;;;;;4971706;28;20110;-67
2022/04/23 08:27:55;;;;;;;0.35;0.32;;;15.20;99.90;;;;;;4971915;28;20502;-67
2022/04/23 08:30:34;;;;;;;1.15;0.82;;;14.80;99.90;;;;;;4971907;28;20398;-67
2022/04/23 08:33:04;;;;;;;0.20;0.20;;;14.30;99.90;;;;;;4953969;28;20054;-68
2022/04/23 08:35:31;;;;;;;1.55;0.68;;;14.30;99.90;;;;;;4970801;28;20034;-69
2022/04/23 08:37:57;;;;;;;0.63;0.57;;;14.60;99.90;;;;;;4971510;28;20023;-68
2022/04/23 08:40:23;;;;;;;0.10;0.10;;;14.60;99.90;;;;;;4970247;28;20038;-70
2022/04/23 08:42:49;;;;;;;0.30;0.30;;;14.80;99.90;;;;;;4971212;28;20435;-70
2022/04/23 08:45:14;;;;;;;0.40;0.40;;;14.80;99.90;;;;;;4970152;28;20121;-69
2022/04/23 08:47:45;;;;;;;0.43;0.43;;;14.80;99.90;;;;;;4971517;28;20035;-70
2022/04/23 08:50:12;;;;;;;0.10;0.10;;;14.70;99.90;;;;;;4970865;28;20062;-70
2022/04/23 08:52:42;;;;;;;0.15;0.15;;;14.70;99.90;;;;;;4927939;28;20035;-70
2022/04/23 08:55:09;;;;;;;0.10;0.10;;;14.50;99.90;;;;;;4941043;28;20126;-70
2022/04/23 08:57:36;;;;;;;0.77;0.77;;;14.60;99.90;;;;;;4984263;28;20030;-70
2022/04/23 09:00:08;;;;;;;0.50;0.50;;;14.50;99.90;;;;;;4972186;28;20027;-69
2022/04/23 09:02:35;;;;;;;0.52;0.52;;;14.70;99.90;;;;;;4970419;28;20498;-69
2022/04/23 09:05:02;;;;;;;0.00;0.00;;;14.70;99.90;;;;;;4931946;28;20065;-68
2022/04/23 09:07:29;;;;;;;0.03;0.03;;;14.70;99.90;;;;;;4989763;28;20034;-69
2022/04/23 09:09:57;;;;;;;0.30;0.30;;;14.90;99.90;;;;;;4989474;28;20030;-68
2022/04/23 09:12:26;;;;;;;0.38;0.35;;;14.70;99.90;;;;;;4990693;28;20037;-68
2022/04/23 09:23:43;;;;;;;0.10;0.10;;;14.70;99.90;;;;;;4990328;28;20056;-68
2022/04/23 09:26:21;;;;;;;0.00;0.00;;;14.60;99.90;;;;;;4990565;28;20026;-68
2022/04/23 09:28:50;;;;;;;0.10;0.10;;;14.70;99.90;;;;;;4980760;28;20073;-68
2022/04/23 09:31:17;;;;;;;0.10;0.10;;;14.70;99.90;;;;;;4971043;28;20477;-69
2022/04/23 09:33:46;;;;;;;0.05;0.05;;;14.70;99.90;;;;;;4969424;28;20035;-68
2022/04/23 09:36:12;;;;;;;0.45;0.43;;;15.00;99.90;;;;;;4969664;28;20027;-68
2022/04/23 09:38:40;;;;;;;0.43;0.43;;;15.20;99.90;;;;;;4969792;28;20084;-69
2022/04/23 09:41:20;;;;;;;0.08;0.08;;;15.00;99.90;;;;;;4970038;28;20027;-69
2022/04/23 09:43:51;;;;;;;0.47;0.47;;;15.30;99.90;;;;;;4970919;28;20030;-69
2022/04/23 09:46:17;;;;;;;0.63;0.57;;;15.50;99.90;;;;;;4969968;28;20034;-69
2022/04/23 09:48:44;;;;;;;0.15;0.15;;;15.70;99.90;;;;;;4969996;28;20170;-69
2022/04/23 09:51:24;;;;;;;0.00;0.00;;;15.80;99.90;;;;;;4969786;28;20034;-68
2022/04/23 09:53:53;;;;;;;2.42;1.00;;;15.90;99.80;;;;;;4969858;28;20130;-69
2022/04/23 09:56:24;;;;;;;0.10;0.10;;;15.60;99.90;;;;;;4970564;28;20025;-68
2022/04/23 09:58:51;;;;;;;0.13;0.13;;;15.60;99.50;;;;;;4972205;28;20037;-67
2022/04/23 10:01:22;;;;;;;0.00;0.00;;;15.40;99.90;;;;;;4973029;28;20054;-68
2022/04/23 10:03:54;;;;;;;0.20;0.20;;;15.30;99.90;;;;;;4973561;28;20030;-69
2022/04/23 10:06:23;;;;;;;0.08;0.05;;;15.40;99.90;;;;;;4973002;28;20031;-69
2022/04/23 10:08:55;;;;;;;0.45;0.32;;;15.30;99.90;;;;;;4972704;28;20375;-69
2022/04/23 10:11:28;;;;;;;0.10;0.10;;;15.50;99.90;;;;;;4957394;28;20414;-69
2022/04/23 10:14:04;;;;;;;0.00;0.00;;;15.40;99.90;;;;;;4973725;28;20474;-68
2022/04/23 10:16:38;;;;;;;0.03;0.03;;;15.50;99.90;;;;;;4972796;28;20054;-70
2022/04/23 10:19:04;;;;;;;0.35;0.35;;;15.40;99.90;;;;;;4958858;28;20031;-69
2022/04/23 10:21:35;;;;;;;1.02;0.68;;;15.60;99.90;;;;;;4973964;28;20034;-68
2022/04/23 10:24:09;;;;;;;0.75;0.68;;;15.70;99.90;;;;;;4972220;28;20035;-69
2022/04/23 10:26:44;;;;;;;0.00;0.00;;;15.80;99.50;;;;;;4957015;28;20540;-70
2022/04/23 10:29:20;;;;;;;0.22;0.15;;;16.00;99.00;;;;;;4940740;28;20154;-67
2022/04/23 10:32:09;;;;;;;0.32;0.32;;;15.80;99.00;;;;;;4973982;28;20475;-69
2022/04/23 10:34:35;;;;;;;0.00;0.00;;;15.80;99.10;;;;;;4973567;28;20531;-69
2022/04/23 10:37:25;;;;;;;0.45;0.45;;;16.10;98.80;;;;;;4972564;28;20035;-67
2022/04/23 10:39:53;;;;;;;0.00;0.00;;;15.70;99.30;;;;;;4973912;28;20059;-68
2022/04/23 10:42:22;;;;;;;0.03;0.03;;;16.00;99.20;;;;;;4973797;28;20085;-67
2022/04/23 10:44:50;;;;;;;0.13;0.10;;;15.70;99.80;;;;;;4973270;28;20037;-69
2022/04/23 10:47:34;;;;;;;1.58;0.40;;;15.90;99.30;;;;;;4973194;28;20093;-70
2022/04/23 10:50:19;;;;;;;0.00;0.00;;;15.60;99.20;;;;;;4972323;28;20088;-68
2022/04/23 10:52:47;;;;;;;0.03;0.03;;;16.00;99.10;;;;;;4972352;28;20046;-69
2022/04/23 10:55:14;;;;;;;0.00;0.00;;;16.00;98.70;;;;;;4971849;28;20034;-69
2022/04/23 10:57:46;;;;;;;0.00;0.00;;;15.70;98.70;;;;;;4973292;28;20031;-69
2022/04/23 11:00:21;;;;;;;0.00;0.00;;;15.50;99.00;;;;;;4972635;28;20039;-68
2022/04/23 11:02:54;;;;;;;0.00;0.00;;;15.40;99.10;;;;;;4972196;28;20038;-67
2022/04/23 11:14:07;;;;;;;0.10;0.10;;;16.10;98.40;;;;;;4957471;28;20085;-68
2022/04/23 11:16:34;;;;;;;0.10;0.10;;;16.20;98.20;;;;;;4971727;28;20026;-67
2022/04/23 11:19:01;;;;;;;5.40;0.35;;;16.00;97.60;;;;;;4955533;28;20038;-68
2022/04/23 11:21:32;;;;;;;0.30;0.30;;;15.80;98.80;;;;;;4972087;28;20034;-68
2022/04/23 11:24:02;;;;;;;0.00;0.00;;;15.80;98.20;;;;;;4971155;28;20372;-68
2022/04/23 11:26:49;;;;;;;0.05;0.03;;;16.00;98.40;;;;;;4972936;28;20450;-68
2022/04/23 11:29:15;;;;;;;0.00;0.00;;;16.20;98.20;;;;;;4972611;28;20066;-59
2022/04/23 11:31:53;;;;;;;0.08;0.08;;;16.40;97.60;;;;;;4974400;28;20497;-59
2022/04/23 11:34:19;;;;;;;0.00;0.00;;;16.20;97.50;;;;;;4974696;28;20035;-59
2022/04/23 11:36:45;;;;;;;0.00;0.00;;;16.00;97.70;;;;;;4972869;28;20031;-60
2022/04/23 11:39:13;;;;;;;0.00;0.00;;;16.30;97.60;;;;;;4972474;28;20427;-64
2022/04/23 11:41:48;;;;;;;0.00;0.00;;;16.70;97.40;;;;;;4972498;28;20088;-62
2022/04/23 11:47:04;;;;;;;0.20;0.20;;;17.50;96.00;;;;;;4972818;28;20038;-71
2022/04/23 11:49:32;;;;;;;0.85;0.38;;;17.60;95.40;;;;;;4971602;28;20538;-67
2022/04/23 11:52:08;;;;;;;0.00;0.00;;;17.50;95.20;;;;;;4954575;28;20102;-67
2022/04/23 11:54:43;;;;;;;0.00;0.00;;;17.40;95.50;;;;;;4970731;28;20023;-66
2022/04/23 11:57:18;;;;;;;0.15;0.15;;;17.70;95.10;;;;;;4970885;28;20030;-66
2022/04/23 11:59:51;;;;;;;0.10;0.10;;;17.70;94.80;;;;;;4970959;28;20451;-66
2022/04/23 12:02:21;;;;;;;0.00;0.00;;;17.30;94.90;;;;;;4971837;28;20026;-67
2022/04/23 12:04:49;;;;;;;0.10;0.10;;;17.30;95.10;;;;;;4970390;28;20022;-67
2022/04/23 12:07:16;;;;;;;0.08;0.08;;;17.50;94.80;;;;;;4970327;28;20498;-67
2022/04/23 12:09:55;;;;;;;0.15;0.15;;;17.20;95.20;;;;;;4970799;28;20450;-67
2022/04/23 12:12:32;;;;;;;0.65;0.65;;;17.00;95.10;;;;;;4971968;28;20062;-67
2022/04/23 12:15:09;;;;;;;0.75;0.40;;;17.40;95.10;;;;;;4954437;28;20126;-67
2022/04/23 12:17:53;;;;;;;0.00;0.00;;;18.00;94.60;;;;;;4970734;28;20045;-67
2022/04/23 12:20:24;;;;;;;0.20;0.20;;;18.10;94.00;;;;;;4970658;28;20516;-66
2022/04/23 12:22:59;;;;;;;0.10;0.10;;;17.90;94.40;;;;;;4970434;28;20031;-67
2022/04/23 12:25:30;;;;;;;0.35;0.35;;;18.30;93.70;;;;;;4972795;28;20919;-68
2022/04/23 12:42:20;;;;;;;0.57;0.57;;;17.30;94.80;;;;;;4978416;28;20026;-71
2022/04/23 12:44:46;;;;;;;2.13;0.93;;;17.10;94.30;;;;;;4989242;28;20038;-70
2022/04/23 12:47:26;;;;;;;0.00;0.00;;;17.30;94.40;;;;;;4972981;28;20363;-71
2022/04/23 12:49:57;;;;;;;0.35;0.35;;;17.50;94.30;;;;;;4990573;28;20513;-71
2022/04/23 12:52:46;;;;;;;0.20;0.20;;;17.50;94.30;;;;;;4989383;28;20039;-72
2022/04/23 12:55:22;;;;;;;0.00;0.00;;;17.30;94.00;;;;;;4973101;28;20509;-70
2022/04/23 12:57:50;;;;;;;0.00;0.00;;;17.30;94.40;;;;;;4990281;28;20041;-70
2022/04/23 13:00:26;;;;;;;0.10;0.10;;;17.70;94.00;;;;;;4970950;28;20475;-70
2022/04/23 13:02:58;;;;;;;0.38;0.38;;;17.90;93.60;;;;;;4922814;28;20039;-71
2022/04/23 13:05:25;;;;;;;0.10;0.10;;;17.60;94.10;;;;;;4953808;28;20046;-70
2022/04/23 13:10:37;;;;;;;0.40;0.40;;;17.10;94.60;;;;;;4969829;28;20030;-70
2022/04/23 13:15:34;;;;;;;0.00;0.00;;;16.90;94.90;;;;;;5000560;28;20060;-70
2022/04/23 13:18:00;;;;;;;1.08;1.00;;;17.00;94.80;;;;;;4989392;28;20050;-70
2022/04/23 13:20:26;;;;;;;40.30;0.80;;;16.90;94.70;;;;;;4990653;28;20087;-70
2022/04/23 13:22:53;;;;;;;0.20;0.20;;;17.00;94.80;;;;;;4972953;28;20041;-72
2022/04/23 13:25:19;;;;;;;0.00;0.00;;;17.10;94.60;;;;;;4985921;28;20034;-71
2022/04/23 13:27:45;;;;;;;0.00;0.00;;;17.00;94.70;;;;;;4971116;28;20050;-71
2022/04/23 13:30:13;;;;;;;2.00;0.40;;;17.10;94.50;;;;;;4990504;28;20033;-71
2022/04/23 13:32:39;;;;;;;0.35;0.35;;;17.10;94.70;;;;;;4991295;28;20026;-72
2022/04/23 13:35:12;;;;;;;1.80;1.70;;;17.30;94.50;;;;;;4992602;28;20113;-74
2022/04/23 13:37:39;;;;;;;0.45;0.45;;;17.10;94.40;;;;;;4994161;28;20026;-74
2022/04/23 13:40:07;;;;;;;0.20;0.20;;;17.10;94.40;;;;;;4992740;28;20031;-74
2022/04/23 13:42:34;;;;;;;0.63;0.63;;;17.00;94.50;;;;;;4976588;28;20038;-74
2022/04/23 13:45:01;;;;;;;0.00;0.00;;;16.80;94.60;;;;;;4993791;28;20494;-74
2022/04/23 13:47:27;;;;;;;0.75;0.75;;;16.80;95.00;;;;;;4993803;28;20401;-74